Virtual Norwegian is not affiliated with Norwegian Air Shuttle in any way.
If you are looking for the real "Norwegian", or you wish to book Norwegian flights, please visit Norwegian.com


We use cookies to ensure you get the best experience on our website.   ACCEPT

GMAD - AGA - Al Massira (Agadir)

General Info Alternate Airport
ICAO: GMAD Elevation: 226 ft ICAO: GMMX
IATA: AGA Country: Morocco IATA: RAK
City: Al Massira Charts: Log in to view charts City: Marrakech
Name: Agadir Hub: No Name Menara
General Info
ICAO: GMAD
IATA: AGA
City: Al Massira
Name: Agadir
Elevation: 226 ft
Country: Morocco
Charts: Log in to view charts
Hub: No
 
Alternate Airport
ICAO: GMMX
IATA: RAK
City: Marrakech
Name: Menara

Weather
220400Z 26008KT CAVOK 18/17 Q1009 NOSIG
Weather
220400Z 26008KT CAVOK 18/17 Q1009 NOSIG

Runway Info
10
Length ILS/LOC Heading
3200 m N/A 092
28
Length ILS/LOC Course
3200 m 110.30 275

NOTAMs
NOTAMs currently unavailable.
NOTAMs
NOTAMs currently unavailable

Route map
Airport
Airport (hub)